sensor_id;sensor_type;location;lat;lon;timestamp;P1;durP1;ratioP1;P2;durP2;ratioP2
21274;SDS011;36472;52.170;20.884;2022-09-09T00:00:26;9.15;;;5.30;;
21274;SDS011;36472;52.170;20.884;2022-09-09T00:03:24;10.48;;;6.25;;
21274;SDS011;36472;52.170;20.884;2022-09-09T00:06:02;11.95;;;6.38;;
21274;SDS011;36472;52.170;20.884;2022-09-09T00:08:45;9.27;;;5.82;;
21274;SDS011;36472;52.170;20.884;2022-09-09T00:11:26;11.18;;;6.20;;
21274;SDS011;36472;52.170;20.884;2022-09-09T00:14:08;11.38;;;6.82;;
21274;SDS011;36472;52.170;20.884;2022-09-09T00:16:47;7.90;;;6.05;;
21274;SDS011;36472;52.170;20.884;2022-09-09T00:19:23;9.35;;;6.60;;
21274;SDS011;36472;52.170;20.884;2022-09-09T00:22:05;9.43;;;6.43;;
21274;SDS011;36472;52.170;20.884;2022-09-09T00:24:46;11.40;;;7.45;;
21274;SDS011;36472;52.170;20.884;2022-09-09T00:27:22;12.02;;;6.63;;
21274;SDS011;36472;52.170;20.884;2022-09-09T00:30:01;10.65;;;6.45;;
21274;SDS011;36472;52.170;20.884;2022-09-09T00:32:43;14.63;;;7.85;;
21274;SDS011;36472;52.170;20.884;2022-09-09T00:35:15;11.35;;;6.43;;
21274;SDS011;36472;52.170;20.884;2022-09-09T00:37:50;13.90;;;7.38;;
21274;SDS011;36472;52.170;20.884;2022-09-09T00:40:27;10.43;;;7.32;;
21274;SDS011;36472;52.170;20.884;2022-09-09T00:43:12;15.80;;;7.32;;
21274;SDS011;36472;52.170;20.884;2022-09-09T00:46:06;11.50;;;7.15;;
21274;SDS011;36472;52.170;20.884;2022-09-09T00:49:00;11.60;;;7.30;;
21274;SDS011;36472;52.170;20.884;2022-09-09T00:51:43;12.15;;;7.30;;
21274;SDS011;36472;52.170;20.884;2022-09-09T00:54:27;10.98;;;7.68;;
21274;SDS011;36472;52.170;20.884;2022-09-09T00:57:19;13.65;;;7.63;;
21274;SDS011;36472;52.170;20.884;2022-09-09T00:59:57;13.02;;;8.38;;
21274;SDS011;36472;52.170;20.884;2022-09-09T01:02:50;12.00;;;8.02;;
21274;SDS011;36472;52.170;20.884;2022-09-09T01:05:33;11.98;;;8.77;;
21274;SDS011;36472;52.170;20.884;2022-09-09T01:08:15;10.35;;;7.57;;
21274;SDS011;36472;52.170;20.884;2022-09-09T01:11:10;11.90;;;8.02;;
21274;SDS011;36472;52.170;20.884;2022-09-09T01:13:52;13.20;;;8.15;;
21274;SDS011;36472;52.170;20.884;2022-09-09T01:16:30;11.80;;;7.85;;
21274;SDS011;36472;52.170;20.884;2022-09-09T01:19:01;12.75;;;8.43;;
21274;SDS011;36472;52.170;20.884;2022-09-09T01:21:38;12.27;;;7.78;;
21274;SDS011;36472;52.170;20.884;2022-09-09T01:24:20;12.30;;;8.73;;
21274;SDS011;36472;52.170;20.884;2022-09-09T01:27:12;13.77;;;8.40;;
21274;SDS011;36472;52.170;20.884;2022-09-09T01:29:44;12.38;;;8.05;;
21274;SDS011;36472;52.170;20.884;2022-09-09T01:35:14;12.75;;;8.98;;
21274;SDS011;36472;52.170;20.884;2022-09-09T01:37:58;14.38;;;9.05;;
21274;SDS011;36472;52.170;20.884;2022-09-09T01:40:27;12.05;;;8.38;;
21274;SDS011;36472;52.170;20.884;2022-09-09T01:42:58;18.55;;;9.02;;
21274;SDS011;36472;52.170;20.884;2022-09-09T01:45:27;11.45;;;8.43;;
21274;SDS011;36472;52.170;20.884;2022-09-09T01:47:57;11.18;;;8.55;;
21274;SDS011;36472;52.170;20.884;2022-09-09T01:50:49;15.07;;;9.50;;
21274;SDS011;36472;52.170;20.884;2022-09-09T01:53:18;16.40;;;9.07;;
21274;SDS011;36472;52.170;20.884;2022-09-09T01:55:53;11.23;;;8.27;;
21274;SDS011;36472;52.170;20.884;2022-09-09T01:58:41;15.45;;;9.52;;
21274;SDS011;36472;52.170;20.884;2022-09-09T02:01:26;12.82;;;9.30;;
21274;SDS011;36472;52.170;20.884;2022-09-09T02:04:08;15.18;;;9.75;;
21274;SDS011;36472;52.170;20.884;2022-09-09T02:06:52;16.10;;;9.35;;
21274;SDS011;36472;52.170;20.884;2022-09-09T02:09:29;14.73;;;8.55;;
21274;SDS011;36472;52.170;20.884;2022-09-09T02:12:00;13.10;;;9.23;;
21274;SDS011;36472;52.170;20.884;2022-09-09T02:14:50;12.98;;;9.27;;
21274;SDS011;36472;52.170;20.884;2022-09-09T02:17:35;12.80;;;9.20;;
21274;SDS011;36472;52.170;20.884;2022-09-09T02:20:14;15.63;;;8.88;;
21274;SDS011;36472;52.170;20.884;2022-09-09T02:22:51;14.60;;;8.50;;
21274;SDS011;36472;52.170;20.884;2022-09-09T02:25:24;12.95;;;9.60;;
21274;SDS011;36472;52.170;20.884;2022-09-09T02:28:06;14.18;;;9.25;;
21274;SDS011;36472;52.170;20.884;2022-09-09T02:30:39;14.32;;;9.65;;
21274;SDS011;36472;52.170;20.884;2022-09-09T02:33:10;15.35;;;9.23;;
21274;SDS011;36472;52.170;20.884;2022-09-09T02:35:45;12.18;;;9.13;;
21274;SDS011;36472;52.170;20.884;2022-09-09T02:38:20;16.77;;;9.80;;
21274;SDS011;36472;52.170;20.884;2022-09-09T02:41:02;13.75;;;9.48;;
21274;SDS011;36472;52.170;20.884;2022-09-09T02:43:32;12.50;;;9.45;;
21274;SDS011;36472;52.170;20.884;2022-09-09T02:46:08;14.80;;;9.55;;
21274;SDS011;36472;52.170;20.884;2022-09-09T02:48:59;13.77;;;10.43;;
21274;SDS011;36472;52.170;20.884;2022-09-09T02:51:39;14.13;;;9.95;;
21274;SDS011;36472;52.170;20.884;2022-09-09T02:54:21;15.45;;;9.07;;
21274;SDS011;36472;52.170;20.884;2022-09-09T02:57:02;13.70;;;9.88;;
21274;SDS011;36472;52.170;20.884;2022-09-09T02:59:40;15.60;;;9.82;;
21274;SDS011;36472;52.170;20.884;2022-09-09T03:02:13;13.48;;;9.52;;
21274;SDS011;36472;52.170;20.884;2022-09-09T03:04:45;14.43;;;9.30;;
21274;SDS011;36472;52.170;20.884;2022-09-09T03:07:19;14.88;;;9.95;;
21274;SDS011;36472;52.170;20.884;2022-09-09T03:09:50;12.15;;;8.75;;
21274;SDS011;36472;52.170;20.884;2022-09-09T03:12:25;15.70;;;9.20;;
21274;SDS011;36472;52.170;20.884;2022-09-09T03:14:53;13.40;;;9.55;;
21274;SDS011;36472;52.170;20.884;2022-09-09T03:17:24;11.82;;;8.55;;
21274;SDS011;36472;52.170;20.884;2022-09-09T03:19:55;13.00;;;9.00;;
21274;SDS011;36472;52.170;20.884;2022-09-09T03:22:25;14.07;;;8.85;;
21274;SDS011;36472;52.170;20.884;2022-09-09T03:24:57;10.32;;;8.43;;
21274;SDS011;36472;52.170;20.884;2022-09-09T03:27:27;11.80;;;8.85;;
21274;SDS011;36472;52.170;20.884;2022-09-09T03:29:57;10.98;;;8.15;;
21274;SDS011;36472;52.170;20.884;2022-09-09T03:32:27;12.45;;;9.05;;
21274;SDS011;36472;52.170;20.884;2022-09-09T03:34:56;13.98;;;8.45;;
21274;SDS011;36472;52.170;20.884;2022-09-09T03:37:25;10.27;;;8.27;;
21274;SDS011;36472;52.170;20.884;2022-09-09T03:39:54;14.35;;;8.48;;
21274;SDS011;36472;52.170;20.884;2022-09-09T03:42:23;10.25;;;8.45;;
21274;SDS011;36472;52.170;20.884;2022-09-09T03:44:54;11.00;;;8.25;;
21274;SDS011;36472;52.170;20.884;2022-09-09T03:47:25;12.73;;;8.50;;
21274;SDS011;36472;52.170;20.884;2022-09-09T03:50:02;9.98;;;8.10;;
21274;SDS011;36472;52.170;20.884;2022-09-09T03:52:36;9.15;;;7.22;;
21274;SDS011;36472;52.170;20.884;2022-09-09T03:55:13;11.43;;;7.80;;
21274;SDS011;36472;52.170;20.884;2022-09-09T03:57:41;12.30;;;8.15;;
21274;SDS011;36472;52.170;20.884;2022-09-09T04:00:12;10.10;;;8.05;;
21274;SDS011;36472;52.170;20.884;2022-09-09T04:02:49;9.45;;;7.75;;
21274;SDS011;36472;52.170;20.884;2022-09-09T04:05:22;10.13;;;7.95;;
21274;SDS011;36472;52.170;20.884;2022-09-09T04:07:51;11.48;;;7.95;;
21274;SDS011;36472;52.170;20.884;2022-09-09T04:10:20;10.18;;;8.23;;
21274;SDS011;36472;52.170;20.884;2022-09-09T04:12:50;10.25;;;8.55;;
21274;SDS011;36472;52.170;20.884;2022-09-09T04:15:20;11.30;;;8.18;;
21274;SDS011;36472;52.170;20.884;2022-09-09T04:17:49;11.68;;;7.93;;
21274;SDS011;36472;52.170;20.884;2022-09-09T04:20:18;11.10;;;8.30;;
21274;SDS011;36472;52.170;20.884;2022-09-09T04:22:49;10.25;;;7.60;;
21274;SDS011;36472;52.170;20.884;2022-09-09T04:25:17;9.35;;;7.15;;
21274;SDS011;36472;52.170;20.884;2022-09-09T04:27:46;9.85;;;8.10;;
21274;SDS011;36472;52.170;20.884;2022-09-09T04:30:18;10.75;;;8.02;;
21274;SDS011;36472;52.170;20.884;2022-09-09T04:32:47;9.05;;;7.57;;
21274;SDS011;36472;52.170;20.884;2022-09-09T04:35:16;9.95;;;7.90;;
21274;SDS011;36472;52.170;20.884;2022-09-09T04:37:47;9.00;;;7.43;;
21274;SDS011;36472;52.170;20.884;2022-09-09T04:40:17;9.23;;;7.32;;
21274;SDS011;36472;52.170;20.884;2022-09-09T04:42:45;11.73;;;8.23;;
21274;SDS011;36472;52.170;20.884;2022-09-09T04:45:17;9.73;;;7.50;;
21274;SDS011;36472;52.170;20.884;2022-09-09T04:47:46;10.32;;;7.72;;
21274;SDS011;36472;52.170;20.884;2022-09-09T04:50:15;10.40;;;7.60;;
21274;SDS011;36472;52.170;20.884;2022-09-09T04:52:46;9.18;;;7.60;;
21274;SDS011;36472;52.170;20.884;2022-09-09T04:55:16;9.85;;;7.55;;
21274;SDS011;36472;52.170;20.884;2022-09-09T04:57:45;8.73;;;6.93;;
21274;SDS011;36472;52.170;20.884;2022-09-09T05:00:15;8.57;;;6.78;;
21274;SDS011;36472;52.170;20.884;2022-09-09T05:02:47;9.15;;;7.35;;
21274;SDS011;36472;52.170;20.884;2022-09-09T05:05:16;9.55;;;6.88;;
21274;SDS011;36472;52.170;20.884;2022-09-09T05:07:49;9.18;;;7.15;;
21274;SDS011;36472;52.170;20.884;2022-09-09T05:10:18;10.98;;;7.00;;
21274;SDS011;36472;52.170;20.884;2022-09-09T05:12:51;7.45;;;6.70;;
21274;SDS011;36472;52.170;20.884;2022-09-09T05:15:24;8.13;;;7.22;;
21274;SDS011;36472;52.170;20.884;2022-09-09T05:17:56;8.75;;;7.18;;
21274;SDS011;36472;52.170;20.884;2022-09-09T05:20:27;10.15;;;6.60;;
21274;SDS011;36472;52.170;20.884;2022-09-09T05:22:58;8.60;;;7.15;;
21274;SDS011;36472;52.170;20.884;2022-09-09T05:25:29;11.13;;;8.02;;
21274;SDS011;36472;52.170;20.884;2022-09-09T05:27:58;8.63;;;7.13;;
21274;SDS011;36472;52.170;20.884;2022-09-09T05:30:28;9.48;;;6.97;;
21274;SDS011;36472;52.170;20.884;2022-09-09T05:32:59;10.40;;;7.22;;
21274;SDS011;36472;52.170;20.884;2022-09-09T05:35:28;8.50;;;6.70;;
21274;SDS011;36472;52.170;20.884;2022-09-09T05:38:00;8.18;;;6.60;;
21274;SDS011;36472;52.170;20.884;2022-09-09T05:40:29;10.25;;;7.25;;
21274;SDS011;36472;52.170;20.884;2022-09-09T05:42:59;7.15;;;6.45;;
21274;SDS011;36472;52.170;20.884;2022-09-09T05:45:29;9.27;;;6.32;;
21274;SDS011;36472;52.170;20.884;2022-09-09T05:48:00;8.10;;;6.47;;
21274;SDS011;36472;52.170;20.884;2022-09-09T05:50:29;8.45;;;6.65;;
21274;SDS011;36472;52.170;20.884;2022-09-09T05:52:59;7.85;;;6.93;;
21274;SDS011;36472;52.170;20.884;2022-09-09T05:55:28;9.45;;;6.85;;
21274;SDS011;36472;52.170;20.884;2022-09-09T05:57:57;8.60;;;6.72;;
21274;SDS011;36472;52.170;20.884;2022-09-09T06:00:26;9.35;;;7.18;;
21274;SDS011;36472;52.170;20.884;2022-09-09T06:02:59;9.35;;;7.38;;
21274;SDS011;36472;52.170;20.884;2022-09-09T06:05:28;8.88;;;7.40;;
21274;SDS011;36472;52.170;20.884;2022-09-09T06:07:59;7.38;;;6.50;;
21274;SDS011;36472;52.170;20.884;2022-09-09T06:10:28;9.15;;;7.32;;
21274;SDS011;36472;52.170;20.884;2022-09-09T06:12:57;9.93;;;7.15;;
21274;SDS011;36472;52.170;20.884;2022-09-09T06:15:26;8.23;;;7.00;;
21274;SDS011;36472;52.170;20.884;2022-09-09T06:17:57;9.73;;;7.47;;
21274;SDS011;36472;52.170;20.884;2022-09-09T06:20:26;8.38;;;7.15;;
21274;SDS011;36472;52.170;20.884;2022-09-09T06:22:57;8.93;;;7.25;;
21274;SDS011;36472;52.170;20.884;2022-09-09T06:25:28;8.48;;;7.60;;
21274;SDS011;36472;52.170;20.884;2022-09-09T06:27:56;9.30;;;6.78;;
21274;SDS011;36472;52.170;20.884;2022-09-09T06:30:25;8.45;;;7.55;;
21274;SDS011;36472;52.170;20.884;2022-09-09T06:32:55;8.00;;;7.15;;
21274;SDS011;36472;52.170;20.884;2022-09-09T06:35:24;9.55;;;6.70;;
21274;SDS011;36472;52.170;20.884;2022-09-09T06:37:53;8.63;;;7.15;;
21274;SDS011;36472;52.170;20.884;2022-09-09T06:40:24;9.48;;;7.35;;
21274;SDS011;36472;52.170;20.884;2022-09-09T06:42:52;10.20;;;8.00;;
21274;SDS011;36472;52.170;20.884;2022-09-09T06:45:32;9.75;;;8.10;;
21274;SDS011;36472;52.170;20.884;2022-09-09T06:48:03;10.35;;;7.88;;
21274;SDS011;36472;52.170;20.884;2022-09-09T06:50:32;9.43;;;8.00;;
21274;SDS011;36472;52.170;20.884;2022-09-09T06:53:02;9.68;;;7.32;;
21274;SDS011;36472;52.170;20.884;2022-09-09T06:55:32;8.43;;;7.53;;
21274;SDS011;36472;52.170;20.884;2022-09-09T06:58:01;10.32;;;8.23;;
21274;SDS011;36472;52.170;20.884;2022-09-09T07:00:30;9.02;;;7.38;;
21274;SDS011;36472;52.170;20.884;2022-09-09T07:02:59;11.82;;;7.65;;
21274;SDS011;36472;52.170;20.884;2022-09-09T07:05:28;9.60;;;7.38;;
21274;SDS011;36472;52.170;20.884;2022-09-09T07:07:57;11.10;;;7.95;;
21274;SDS011;36472;52.170;20.884;2022-09-09T07:10:26;9.25;;;7.60;;
21274;SDS011;36472;52.170;20.884;2022-09-09T07:12:56;11.48;;;8.32;;
21274;SDS011;36472;52.170;20.884;2022-09-09T07:15:25;11.10;;;8.38;;
21274;SDS011;36472;52.170;20.884;2022-09-09T07:17:54;10.65;;;8.90;;
21274;SDS011;36472;52.170;20.884;2022-09-09T07:20:23;10.23;;;8.40;;
21274;SDS011;36472;52.170;20.884;2022-09-09T07:22:54;12.10;;;8.60;;
21274;SDS011;36472;52.170;20.884;2022-09-09T07:25:25;11.02;;;9.07;;
21274;SDS011;36472;52.170;20.884;2022-09-09T07:27:58;10.93;;;8.93;;
21274;SDS011;36472;52.170;20.884;2022-09-09T07:30:26;12.07;;;8.80;;
21274;SDS011;36472;52.170;20.884;2022-09-09T07:32:56;9.93;;;8.45;;
21274;SDS011;36472;52.170;20.884;2022-09-09T07:35:26;11.35;;;8.88;;
21274;SDS011;36472;52.170;20.884;2022-09-09T07:37:55;12.60;;;9.80;;
21274;SDS011;36472;52.170;20.884;2022-09-09T07:40:25;10.50;;;8.98;;
21274;SDS011;36472;52.170;20.884;2022-09-09T07:42:54;10.35;;;9.25;;
21274;SDS011;36472;52.170;20.884;2022-09-09T07:45:24;14.45;;;10.30;;
21274;SDS011;36472;52.170;20.884;2022-09-09T07:47:55;13.23;;;9.95;;
21274;SDS011;36472;52.170;20.884;2022-09-09T07:50:24;12.55;;;10.18;;
21274;SDS011;36472;52.170;20.884;2022-09-09T07:52:54;14.20;;;9.65;;
21274;SDS011;36472;52.170;20.884;2022-09-09T07:55:24;13.00;;;10.55;;
21274;SDS011;36472;52.170;20.884;2022-09-09T07:57:53;11.95;;;10.13;;
21274;SDS011;36472;52.170;20.884;2022-09-09T08:00:25;12.30;;;9.52;;
21274;SDS011;36472;52.170;20.884;2022-09-09T08:02:56;14.23;;;10.52;;
21274;SDS011;36472;52.170;20.884;2022-09-09T08:05:28;15.90;;;10.15;;
21274;SDS011;36472;52.170;20.884;2022-09-09T08:07:57;14.23;;;10.85;;
21274;SDS011;36472;52.170;20.884;2022-09-09T08:10:25;14.63;;;10.73;;
21274;SDS011;36472;52.170;20.884;2022-09-09T08:12:55;13.63;;;10.82;;
21274;SDS011;36472;52.170;20.884;2022-09-09T08:15:45;12.40;;;10.55;;
21274;SDS011;36472;52.170;20.884;2022-09-09T08:18:14;16.10;;;11.32;;
21274;SDS011;36472;52.170;20.884;2022-09-09T08:20:44;13.15;;;10.88;;
21274;SDS011;36472;52.170;20.884;2022-09-09T08:23:14;15.13;;;12.05;;
21274;SDS011;36472;52.170;20.884;2022-09-09T08:25:43;16.65;;;11.52;;
21274;SDS011;36472;52.170;20.884;2022-09-09T08:28:13;18.67;;;11.98;;
21274;SDS011;36472;52.170;20.884;2022-09-09T08:30:42;13.68;;;10.73;;
21274;SDS011;36472;52.170;20.884;2022-09-09T08:33:12;15.50;;;11.77;;
21274;SDS011;36472;52.170;20.884;2022-09-09T08:35:49;14.50;;;10.88;;
21274;SDS011;36472;52.170;20.884;2022-09-09T08:38:19;14.82;;;11.88;;
21274;SDS011;36472;52.170;20.884;2022-09-09T08:40:48;14.93;;;11.23;;
21274;SDS011;36472;52.170;20.884;2022-09-09T08:43:28;16.20;;;12.10;;
21274;SDS011;36472;52.170;20.884;2022-09-09T08:46:00;16.13;;;12.43;;
21274;SDS011;36472;52.170;20.884;2022-09-09T08:48:43;18.80;;;13.65;;
21274;SDS011;36472;52.170;20.884;2022-09-09T08:51:24;19.17;;;13.63;;
21274;SDS011;36472;52.170;20.884;2022-09-09T08:53:59;18.63;;;13.73;;
21274;SDS011;36472;52.170;20.884;2022-09-09T08:56:32;21.05;;;15.05;;
21274;SDS011;36472;52.170;20.884;2022-09-09T08:59:02;20.40;;;14.65;;
21274;SDS011;36472;52.170;20.884;2022-09-09T09:01:39;19.88;;;14.80;;
21274;SDS011;36472;52.170;20.884;2022-09-09T09:04:47;19.30;;;14.70;;
21274;SDS011;36472;52.170;20.884;2022-09-09T09:07:36;19.77;;;14.15;;
21274;SDS011;36472;52.170;20.884;2022-09-09T09:10:27;23.95;;;15.35;;
21274;SDS011;36472;52.170;20.884;2022-09-09T09:13:17;23.80;;;15.20;;
21274;SDS011;36472;52.170;20.884;2022-09-09T09:15:55;24.38;;;15.18;;
21274;SDS011;36472;52.170;20.884;2022-09-09T09:18:31;22.75;;;16.73;;
21274;SDS011;36472;52.170;20.884;2022-09-09T09:21:03;21.13;;;15.63;;
21274;SDS011;36472;52.170;20.884;2022-09-09T09:23:43;22.75;;;16.48;;
21274;SDS011;36472;52.170;20.884;2022-09-09T09:26:22;22.85;;;15.48;;
21274;SDS011;36472;52.170;20.884;2022-09-09T09:28:56;25.27;;;15.75;;
21274;SDS011;36472;52.170;20.884;2022-09-09T09:31:36;24.48;;;15.98;;
21274;SDS011;36472;52.170;20.884;2022-09-09T09:34:05;24.23;;;17.30;;
21274;SDS011;36472;52.170;20.884;2022-09-09T09:36:40;24.13;;;16.42;;
21274;SDS011;36472;52.170;20.884;2022-09-09T09:39:22;27.00;;;18.48;;
21274;SDS011;36472;52.170;20.884;2022-09-09T09:42:15;26.20;;;16.83;;
21274;SDS011;36472;52.170;20.884;2022-09-09T09:44:50;26.42;;;16.65;;
21274;SDS011;36472;52.170;20.884;2022-09-09T09:47:22;28.17;;;18.48;;
21274;SDS011;36472;52.170;20.884;2022-09-09T09:50:00;25.17;;;17.38;;
21274;SDS011;36472;52.170;20.884;2022-09-09T09:52:38;28.05;;;17.77;;
21274;SDS011;36472;52.170;20.884;2022-09-09T09:55:12;25.48;;;17.25;;
21274;SDS011;36472;52.170;20.884;2022-09-09T09:57:45;29.50;;;18.08;;
21274;SDS011;36472;52.170;20.884;2022-09-09T10:00:14;29.33;;;18.80;;
21274;SDS011;36472;52.170;20.884;2022-09-09T10:02:59;28.08;;;17.90;;
21274;SDS011;36472;52.170;20.884;2022-09-09T10:05:32;31.80;;;19.88;;
21274;SDS011;36472;52.170;20.884;2022-09-09T10:08:11;29.25;;;18.42;;
21274;SDS011;36472;52.170;20.884;2022-09-09T10:10:48;27.02;;;17.02;;
21274;SDS011;36472;52.170;20.884;2022-09-09T10:13:53;30.55;;;19.10;;
21274;SDS011;36472;52.170;20.884;2022-09-09T10:16:40;30.58;;;19.15;;
21274;SDS011;36472;52.170;20.884;2022-09-09T10:19:28;29.85;;;18.63;;
21274;SDS011;36472;52.170;20.884;2022-09-09T10:22:05;36.53;;;20.40;;
21274;SDS011;36472;52.170;20.884;2022-09-09T10:24:57;31.00;;;19.10;;
21274;SDS011;36472;52.170;20.884;2022-09-09T10:27:53;28.30;;;18.98;;
21274;SDS011;36472;52.170;20.884;2022-09-09T10:30:46;33.42;;;20.58;;
21274;SDS011;36472;52.170;20.884;2022-09-09T10:33:32;32.47;;;20.85;;
21274;SDS011;36472;52.170;20.884;2022-09-09T10:36:12;27.60;;;18.38;;
21274;SDS011;36472;52.170;20.884;2022-09-09T10:38:47;33.85;;;20.10;;
21274;SDS011;36472;52.170;20.884;2022-09-09T10:41:26;30.70;;;20.13;;
21274;SDS011;36472;52.170;20.884;2022-09-09T10:44:28;33.40;;;21.38;;
21274;SDS011;36472;52.170;20.884;2022-09-09T10:47:19;32.90;;;20.48;;
21274;SDS011;36472;52.170;20.884;2022-09-09T10:50:18;29.20;;;20.10;;
21274;SDS011;36472;52.170;20.884;2022-09-09T10:53:44;32.45;;;20.35;;
21274;SDS011;36472;52.170;20.884;2022-09-09T10:56:27;31.20;;;20.35;;
21274;SDS011;36472;52.170;20.884;2022-09-09T10:58:58;33.20;;;20.15;;
21274;SDS011;36472;52.170;20.884;2022-09-09T11:01:36;32.97;;;20.13;;
21274;SDS011;36472;52.170;20.884;2022-09-09T11:04:13;33.35;;;21.35;;
21274;SDS011;36472;52.170;20.884;2022-09-09T11:06:51;35.40;;;21.50;;
21274;SDS011;36472;52.170;20.884;2022-09-09T11:09:24;33.58;;;21.27;;
21274;SDS011;36472;52.170;20.884;2022-09-09T11:12:00;33.75;;;20.77;;
21274;SDS011;36472;52.170;20.884;2022-09-09T11:14:32;33.00;;;20.58;;
21274;SDS011;36472;52.170;20.884;2022-09-09T11:17:10;32.13;;;19.77;;
21274;SDS011;36472;52.170;20.884;2022-09-09T11:19:44;33.08;;;21.98;;
21274;SDS011;36472;52.170;20.884;2022-09-09T11:22:18;35.63;;;22.70;;
21274;SDS011;36472;52.170;20.884;2022-09-09T11:24:57;36.45;;;21.13;;
21274;SDS011;36472;52.170;20.884;2022-09-09T11:27:35;32.38;;;20.88;;
21274;SDS011;36472;52.170;20.884;2022-09-09T11:30:14;35.80;;;22.75;;
21274;SDS011;36472;52.170;20.884;2022-09-09T11:33:11;37.05;;;21.63;;
21274;SDS011;36472;52.170;20.884;2022-09-09T11:39:35;36.03;;;23.38;;
21274;SDS011;36472;52.170;20.884;2022-09-09T11:42:20;42.00;;;23.50;;
21274;SDS011;36472;52.170;20.884;2022-09-09T11:44:52;33.38;;;20.42;;
21274;SDS011;36472;52.170;20.884;2022-09-09T11:47:24;40.45;;;23.63;;
21274;SDS011;36472;52.170;20.884;2022-09-09T11:50:07;39.47;;;24.38;;
21274;SDS011;36472;52.170;20.884;2022-09-09T11:52:40;37.58;;;23.08;;
21274;SDS011;36472;52.170;20.884;2022-09-09T11:55:25;35.33;;;22.55;;
21274;SDS011;36472;52.170;20.884;2022-09-09T11:58:00;36.30;;;21.55;;
21274;SDS011;36472;52.170;20.884;2022-09-09T12:00:33;35.40;;;22.95;;
21274;SDS011;36472;52.170;20.884;2022-09-09T12:03:05;34.33;;;21.48;;
21274;SDS011;36472;52.170;20.884;2022-09-09T12:06:08;40.70;;;24.33;;
21274;SDS011;36472;52.170;20.884;2022-09-09T12:08:48;39.97;;;24.15;;
21274;SDS011;36472;52.170;20.884;2022-09-09T12:11:25;33.40;;;23.50;;
21274;SDS011;36472;52.170;20.884;2022-09-09T12:13:57;39.80;;;24.30;;
21274;SDS011;36472;52.170;20.884;2022-09-09T12:16:30;40.47;;;25.17;;
21274;SDS011;36472;52.170;20.884;2022-09-09T12:19:05;44.67;;;26.70;;
21274;SDS011;36472;52.170;20.884;2022-09-09T12:21:45;41.13;;;24.60;;
21274;SDS011;36472;52.170;20.884;2022-09-09T12:24:24;42.13;;;25.92;;
21274;SDS011;36472;52.170;20.884;2022-09-09T12:27:06;39.17;;;24.02;;
21274;SDS011;36472;52.170;20.884;2022-09-09T12:29:47;38.28;;;25.55;;
21274;SDS011;36472;52.170;20.884;2022-09-09T12:32:29;37.28;;;25.13;;
21274;SDS011;36472;52.170;20.884;2022-09-09T12:34:59;44.10;;;26.77;;
21274;SDS011;36472;52.170;20.884;2022-09-09T12:37:34;39.38;;;24.83;;
21274;SDS011;36472;52.170;20.884;2022-09-09T12:40:15;40.15;;;24.95;;
21274;SDS011;36472;52.170;20.884;2022-09-09T12:42:50;41.08;;;25.02;;
21274;SDS011;36472;52.170;20.884;2022-09-09T12:45:20;41.05;;;24.33;;
21274;SDS011;36472;52.170;20.884;2022-09-09T12:47:54;40.03;;;26.20;;
21274;SDS011;36472;52.170;20.884;2022-09-09T12:50:29;47.40;;;27.80;;
21274;SDS011;36472;52.170;20.884;2022-09-09T12:53:01;45.05;;;26.63;;
21274;SDS011;36472;52.170;20.884;2022-09-09T12:55:38;46.40;;;26.25;;
21274;SDS011;36472;52.170;20.884;2022-09-09T12:58:07;47.20;;;27.48;;
21274;SDS011;36472;52.170;20.884;2022-09-09T13:00:48;45.08;;;25.23;;
21274;SDS011;36472;52.170;20.884;2022-09-09T13:03:21;42.70;;;26.13;;
21274;SDS011;36472;52.170;20.884;2022-09-09T13:05:51;44.42;;;27.45;;
21274;SDS011;36472;52.170;20.884;2022-09-09T13:08:27;48.85;;;27.13;;
21274;SDS011;36472;52.170;20.884;2022-09-09T13:10:56;48.05;;;28.27;;
21274;SDS011;36472;52.170;20.884;2022-09-09T13:13:30;43.17;;;25.88;;
21274;SDS011;36472;52.170;20.884;2022-09-09T13:16:05;49.53;;;29.85;;
21274;SDS011;36472;52.170;20.884;2022-09-09T13:18:48;45.88;;;27.95;;
21274;SDS011;36472;52.170;20.884;2022-09-09T13:21:18;43.95;;;25.95;;
21274;SDS011;36472;52.170;20.884;2022-09-09T13:23:50;49.20;;;26.90;;
21274;SDS011;36472;52.170;20.884;2022-09-09T13:26:20;46.38;;;27.63;;
21274;SDS011;36472;52.170;20.884;2022-09-09T13:28:52;46.13;;;28.73;;
21274;SDS011;36472;52.170;20.884;2022-09-09T13:31:23;40.30;;;26.67;;
21274;SDS011;36472;52.170;20.884;2022-09-09T13:33:58;47.13;;;26.55;;
21274;SDS011;36472;52.170;20.884;2022-09-09T13:36:27;45.72;;;27.23;;
21274;SDS011;36472;52.170;20.884;2022-09-09T13:38:59;51.03;;;28.33;;
21274;SDS011;36472;52.170;20.884;2022-09-09T13:41:31;44.08;;;25.92;;
21274;SDS011;36472;52.170;20.884;2022-09-09T13:44:03;47.05;;;26.90;;
21274;SDS011;36472;52.170;20.884;2022-09-09T13:46:34;49.70;;;28.70;;
21274;SDS011;36472;52.170;20.884;2022-09-09T13:49:19;52.47;;;29.65;;
21274;SDS011;36472;52.170;20.884;2022-09-09T13:51:50;46.85;;;26.70;;
21274;SDS011;36472;52.170;20.884;2022-09-09T13:54:20;47.13;;;26.35;;
21274;SDS011;36472;52.170;20.884;2022-09-09T13:56:49;45.78;;;26.30;;
21274;SDS011;36472;52.170;20.884;2022-09-09T13:59:19;47.55;;;27.42;;
21274;SDS011;36472;52.170;20.884;2022-09-09T14:01:48;46.25;;;27.40;;
21274;SDS011;36472;52.170;20.884;2022-09-09T14:04:20;48.40;;;27.55;;
21274;SDS011;36472;52.170;20.884;2022-09-09T14:06:49;44.03;;;26.50;;
21274;SDS011;36472;52.170;20.884;2022-09-09T14:09:18;51.92;;;26.77;;
21274;SDS011;36472;52.170;20.884;2022-09-09T14:11:47;42.90;;;24.85;;
21274;SDS011;36472;52.170;20.884;2022-09-09T14:14:16;45.80;;;24.88;;
21274;SDS011;36472;52.170;20.884;2022-09-09T14:16:44;46.53;;;25.60;;
21274;SDS011;36472;52.170;20.884;2022-09-09T14:19:13;43.30;;;24.80;;
21274;SDS011;36472;52.170;20.884;2022-09-09T14:21:43;44.13;;;25.17;;
21274;SDS011;36472;52.170;20.884;2022-09-09T14:24:12;45.95;;;24.77;;
21274;SDS011;36472;52.170;20.884;2022-09-09T14:26:41;48.13;;;27.33;;
21274;SDS011;36472;52.170;20.884;2022-09-09T14:29:09;48.35;;;26.15;;
21274;SDS011;36472;52.170;20.884;2022-09-09T14:31:38;47.53;;;25.05;;
21274;SDS011;36472;52.170;20.884;2022-09-09T14:34:06;42.92;;;24.42;;
21274;SDS011;36472;52.170;20.884;2022-09-09T14:36:36;40.17;;;24.55;;
21274;SDS011;36472;52.170;20.884;2022-09-09T14:39:06;42.05;;;24.20;;
21274;SDS011;36472;52.170;20.884;2022-09-09T14:41:35;45.63;;;25.52;;
21274;SDS011;36472;52.170;20.884;2022-09-09T14:44:04;41.78;;;25.30;;
21274;SDS011;36472;52.170;20.884;2022-09-09T14:46:33;44.50;;;26.40;;
21274;SDS011;36472;52.170;20.884;2022-09-09T14:49:03;43.47;;;24.77;;
21274;SDS011;36472;52.170;20.884;2022-09-09T14:51:32;39.17;;;22.13;;
21274;SDS011;36472;52.170;20.884;2022-09-09T14:54:00;39.65;;;23.73;;
21274;SDS011;36472;52.170;20.884;2022-09-09T14:56:31;41.38;;;24.10;;
21274;SDS011;36472;52.170;20.884;2022-09-09T14:59:02;41.97;;;23.98;;
21274;SDS011;36472;52.170;20.884;2022-09-09T15:01:31;41.15;;;23.55;;
21274;SDS011;36472;52.170;20.884;2022-09-09T15:04:02;40.47;;;23.17;;
21274;SDS011;36472;52.170;20.884;2022-09-09T15:06:34;34.40;;;22.42;;
21274;SDS011;36472;52.170;20.884;2022-09-09T15:09:05;38.58;;;22.95;;